sensor_id;sensor_type;location;lat;lon;timestamp;temperature;humidity
3701;DHT22;1866;48.374;10.766;2023-06-04T00:02:17;14.20;99.90
3701;DHT22;1866;48.374;10.766;2023-06-04T00:04:43;14.30;99.90
3701;DHT22;1866;48.374;10.766;2023-06-04T00:07:10;14.10;99.90
3701;DHT22;1866;48.374;10.766;2023-06-04T00:09:38;14.20;99.90
3701;DHT22;1866;48.374;10.766;2023-06-04T00:12:06;14.00;99.90
3701;DHT22;1866;48.374;10.766;2023-06-04T00:14:32;13.90;99.90
3701;DHT22;1866;48.374;10.766;2023-06-04T00:17:01;14.00;99.90
3701;DHT22;1866;48.374;10.766;2023-06-04T00:19:28;14.10;99.90
3701;DHT22;1866;48.374;10.766;2023-06-04T00:21:55;14.00;99.90
3701;DHT22;1866;48.374;10.766;2023-06-04T00:24:22;13.90;99.90
3701;DHT22;1866;48.374;10.766;2023-06-04T00:26:48;13.80;99.90
3701;DHT22;1866;48.374;10.766;2023-06-04T00:29:15;13.60;99.90
3701;DHT22;1866;48.374;10.766;2023-06-04T00:31:42;13.70;99.90
3701;DHT22;1866;48.374;10.766;2023-06-04T00:34:11;13.90;99.90
3701;DHT22;1866;48.374;10.766;2023-06-04T00:36:39;13.70;99.90
3701;DHT22;1866;48.374;10.766;2023-06-04T00:39:06;13.50;99.90
3701;DHT22;1866;48.374;10.766;2023-06-04T00:41:33;13.50;99.90
3701;DHT22;1866;48.374;10.766;2023-06-04T00:43:59;13.40;99.90
3701;DHT22;1866;48.374;10.766;2023-06-04T00:46:28;13.50;99.90
3701;DHT22;1866;48.374;10.766;2023-06-04T00:48:57;13.30;99.90
3701;DHT22;1866;48.374;10.766;2023-06-04T00:51:25;13.50;99.90
3701;DHT22;1866;48.374;10.766;2023-06-04T00:53:52;12.90;99.90
3701;DHT22;1866;48.374;10.766;2023-06-04T00:56:19;12.90;99.90
3701;DHT22;1866;48.374;10.766;2023-06-04T00:58:46;12.50;99.90
3701;DHT22;1866;48.374;10.766;2023-06-04T01:01:19;12.60;99.90
3701;DHT22;1866;48.374;10.766;2023-06-04T01:03:51;12.50;99.90
3701;DHT22;1866;48.374;10.766;2023-06-04T01:06:21;12.80;99.90
3701;DHT22;1866;48.374;10.766;2023-06-04T01:08:51;12.70;99.90
3701;DHT22;1866;48.374;10.766;2023-06-04T01:11:30;13.00;99.90
3701;DHT22;1866;48.374;10.766;2023-06-04T01:13:57;12.90;99.90
3701;DHT22;1866;48.374;10.766;2023-06-04T01:16:25;12.40;99.90
3701;DHT22;1866;48.374;10.766;2023-06-04T01:18:56;12.70;99.90
3701;DHT22;1866;48.374;10.766;2023-06-04T01:21:25;12.20;99.90
3701;DHT22;1866;48.374;10.766;2023-06-04T01:23:57;12.00;99.90
3701;DHT22;1866;48.374;10.766;2023-06-04T01:26:27;12.20;99.90
3701;DHT22;1866;48.374;10.766;2023-06-04T01:28:55;12.20;99.90
3701;DHT22;1866;48.374;10.766;2023-06-04T01:31:23;12.40;99.90
3701;DHT22;1866;48.374;10.766;2023-06-04T01:33:51;12.10;99.90
3701;DHT22;1866;48.374;10.766;2023-06-04T01:36:18;12.30;99.90
3701;DHT22;1866;48.374;10.766;2023-06-04T01:38:45;12.00;99.90
3701;DHT22;1866;48.374;10.766;2023-06-04T01:41:13;11.90;99.90
3701;DHT22;1866;48.374;10.766;2023-06-04T01:43:40;12.00;99.90
3701;DHT22;1866;48.374;10.766;2023-06-04T01:46:08;12.00;1.00
3701;DHT22;1866;48.374;10.766;2023-06-04T01:48:34;11.60;1.00
3701;DHT22;1866;48.374;10.766;2023-06-04T01:51:02;11.50;1.00
3701;DHT22;1866;48.374;10.766;2023-06-04T01:53:29;11.50;1.00
3701;DHT22;1866;48.374;10.766;2023-06-04T01:55:56;11.60;1.00
3701;DHT22;1866;48.374;10.766;2023-06-04T01:58:26;11.60;1.00
3701;DHT22;1866;48.374;10.766;2023-06-04T02:00:54;11.80;1.00
3701;DHT22;1866;48.374;10.766;2023-06-04T02:03:22;11.90;1.00
3701;DHT22;1866;48.374;10.766;2023-06-04T02:05:49;11.50;1.00
3701;DHT22;1866;48.374;10.766;2023-06-04T02:08:16;11.70;1.00
3701;DHT22;1866;48.374;10.766;2023-06-04T02:10:45;11.70;1.00
3701;DHT22;1866;48.374;10.766;2023-06-04T02:13:11;11.80;1.00
3701;DHT22;1866;48.374;10.766;2023-06-04T02:15:39;11.80;1.00
3701;DHT22;1866;48.374;10.766;2023-06-04T02:18:13;11.90;1.00
3701;DHT22;1866;48.374;10.766;2023-06-04T02:20:43;11.70;99.90
3701;DHT22;1866;48.374;10.766;2023-06-04T02:23:10;11.20;1.00
3701;DHT22;1866;48.374;10.766;2023-06-04T02:25:38;11.20;1.00
3701;DHT22;1866;48.374;10.766;2023-06-04T02:28:04;11.50;1.00
3701;DHT22;1866;48.374;10.766;2023-06-04T02:30:32;11.50;1.00
3701;DHT22;1866;48.374;10.766;2023-06-04T02:33:00;11.20;1.00
3701;DHT22;1866;48.374;10.766;2023-06-04T02:35:27;11.20;1.00
3701;DHT22;1866;48.374;10.766;2023-06-04T02:37:54;11.00;1.00
3701;DHT22;1866;48.374;10.766;2023-06-04T02:40:21;11.00;1.00
3701;DHT22;1866;48.374;10.766;2023-06-04T02:42:48;11.10;1.00
3701;DHT22;1866;48.374;10.766;2023-06-04T02:45:15;10.70;1.00
3701;DHT22;1866;48.374;10.766;2023-06-04T02:47:41;10.80;1.00
3701;DHT22;1866;48.374;10.766;2023-06-04T02:50:09;11.10;1.00
3701;DHT22;1866;48.374;10.766;2023-06-04T02:52:36;11.00;1.00
3701;DHT22;1866;48.374;10.766;2023-06-04T02:55:03;10.90;1.00
3701;DHT22;1866;48.374;10.766;2023-06-04T02:57:30;10.80;1.00
3701;DHT22;1866;48.374;10.766;2023-06-04T02:59:57;10.20;1.00
3701;DHT22;1866;48.374;10.766;2023-06-04T03:02:23;10.30;1.00
3701;DHT22;1866;48.374;10.766;2023-06-04T03:04:50;10.80;1.00
3701;DHT22;1866;48.374;10.766;2023-06-04T03:07:19;10.90;1.00
3701;DHT22;1866;48.374;10.766;2023-06-04T03:09:49;10.70;1.00
3701;DHT22;1866;48.374;10.766;2023-06-04T03:12:15;10.70;1.00
3701;DHT22;1866;48.374;10.766;2023-06-04T03:14:42;11.00;1.00
3701;DHT22;1866;48.374;10.766;2023-06-04T03:17:09;11.10;1.00
3701;DHT22;1866;48.374;10.766;2023-06-04T03:19:36;10.80;1.00
3701;DHT22;1866;48.374;10.766;2023-06-04T03:22:04;10.90;1.00
3701;DHT22;1866;48.374;10.766;2023-06-04T03:24:34;11.00;1.00
3701;DHT22;1866;48.374;10.766;2023-06-04T03:27:01;10.90;1.00
3701;DHT22;1866;48.374;10.766;2023-06-04T03:29:29;10.80;1.00
3701;DHT22;1866;48.374;10.766;2023-06-04T03:31:55;10.60;1.00
3701;DHT22;1866;48.374;10.766;2023-06-04T03:34:23;10.60;1.00
3701;DHT22;1866;48.374;10.766;2023-06-04T03:36:50;10.80;1.00
3701;DHT22;1866;48.374;10.766;2023-06-04T03:39:17;10.90;1.00
3701;DHT22;1866;48.374;10.766;2023-06-04T03:41:45;11.10;1.00
3701;DHT22;1866;48.374;10.766;2023-06-04T03:44:12;11.10;1.00
3701;DHT22;1866;48.374;10.766;2023-06-04T03:46:38;11.10;1.00
3701;DHT22;1866;48.374;10.766;2023-06-04T03:49:05;10.90;1.00
3701;DHT22;1866;48.374;10.766;2023-06-04T03:51:32;11.00;1.00
3701;DHT22;1866;48.374;10.766;2023-06-04T03:53:59;11.10;1.00
3701;DHT22;1866;48.374;10.766;2023-06-04T03:56:28;11.40;1.00
3701;DHT22;1866;48.374;10.766;2023-06-04T03:58:56;11.20;1.00
3701;DHT22;1866;48.374;10.766;2023-06-04T04:01:23;11.40;1.00
3701;DHT22;1866;48.374;10.766;2023-06-04T04:03:50;11.50;1.00
3701;DHT22;1866;48.374;10.766;2023-06-04T04:06:17;11.50;1.00
3701;DHT22;1866;48.374;10.766;2023-06-04T04:08:44;12.10;1.00
3701;DHT22;1866;48.374;10.766;2023-06-04T04:11:11;13.40;1.00
3701;DHT22;1866;48.374;10.766;2023-06-04T04:13:38;14.20;1.00
3701;DHT22;1866;48.374;10.766;2023-06-04T04:16:07;14.70;1.00
3701;DHT22;1866;48.374;10.766;2023-06-04T04:18:36;15.10;1.00
3701;DHT22;1866;48.374;10.766;2023-06-04T04:21:03;14.90;1.00
3701;DHT22;1866;48.374;10.766;2023-06-04T04:23:31;15.50;1.00
3701;DHT22;1866;48.374;10.766;2023-06-04T04:25:58;15.90;1.00
3701;DHT22;1866;48.374;10.766;2023-06-04T04:28:24;16.00;1.00
3701;DHT22;1866;48.374;10.766;2023-06-04T04:30:53;16.10;1.00
3701;DHT22;1866;48.374;10.766;2023-06-04T04:33:23;16.20;1.00
3701;DHT22;1866;48.374;10.766;2023-06-04T04:35:50;16.50;1.00
3701;DHT22;1866;48.374;10.766;2023-06-04T04:38:19;16.90;1.00
3701;DHT22;1866;48.374;10.766;2023-06-04T04:40:46;16.10;1.00
3701;DHT22;1866;48.374;10.766;2023-06-04T04:43:13;16.40;1.00
3701;DHT22;1866;48.374;10.766;2023-06-04T04:45:40;17.20;1.00
3701;DHT22;1866;48.374;10.766;2023-06-04T04:48:07;16.80;1.00
3701;DHT22;1866;48.374;10.766;2023-06-04T04:50:35;16.40;1.00
3701;DHT22;1866;48.374;10.766;2023-06-04T04:53:01;16.80;1.00
3701;DHT22;1866;48.374;10.766;2023-06-04T04:55:28;16.60;1.00
3701;DHT22;1866;48.374;10.766;2023-06-04T04:57:55;17.00;1.00
3701;DHT22;1866;48.374;10.766;2023-06-04T05:00:21;17.30;1.00
3701;DHT22;1866;48.374;10.766;2023-06-04T05:02:48;15.90;99.90
3701;DHT22;1866;48.374;10.766;2023-06-04T05:05:14;17.20;1.00
3701;DHT22;1866;48.374;10.766;2023-06-04T05:07:43;16.30;99.90
3701;DHT22;1866;48.374;10.766;2023-06-04T05:10:09;15.10;99.90
3701;DHT22;1866;48.374;10.766;2023-06-04T05:12:36;14.70;99.90
3701;DHT22;1866;48.374;10.766;2023-06-04T05:15:03;14.10;99.90
3701;DHT22;1866;48.374;10.766;2023-06-04T05:17:29;14.00;99.90
3701;DHT22;1866;48.374;10.766;2023-06-04T05:19:56;13.40;99.90
3701;DHT22;1866;48.374;10.766;2023-06-04T05:22:30;13.70;99.90
3701;DHT22;1866;48.374;10.766;2023-06-04T05:24:59;13.90;99.90
3701;DHT22;1866;48.374;10.766;2023-06-04T05:27:26;14.30;99.90
3701;DHT22;1866;48.374;10.766;2023-06-04T05:29:53;14.00;99.90
3701;DHT22;1866;48.374;10.766;2023-06-04T05:32:19;13.90;99.90
3701;DHT22;1866;48.374;10.766;2023-06-04T05:34:48;13.90;99.90
3701;DHT22;1866;48.374;10.766;2023-06-04T05:37:14;13.90;99.90
3701;DHT22;1866;48.374;10.766;2023-06-04T05:39:42;13.80;99.90
3701;DHT22;1866;48.374;10.766;2023-06-04T05:42:10;14.20;99.90
3701;DHT22;1866;48.374;10.766;2023-06-04T05:44:37;14.00;99.90
3701;DHT22;1866;48.374;10.766;2023-06-04T05:47:04;14.20;99.90
3701;DHT22;1866;48.374;10.766;2023-06-04T05:49:30;14.20;99.90
3701;DHT22;1866;48.374;10.766;2023-06-04T05:51:57;14.40;99.90
3701;DHT22;1866;48.374;10.766;2023-06-04T05:54:24;14.30;99.90
3701;DHT22;1866;48.374;10.766;2023-06-04T05:56:51;14.50;99.90
3701;DHT22;1866;48.374;10.766;2023-06-04T05:59:19;14.70;1.00
3701;DHT22;1866;48.374;10.766;2023-06-04T06:01:46;14.90;1.00
3701;DHT22;1866;48.374;10.766;2023-06-04T06:04:13;14.80;1.00
3701;DHT22;1866;48.374;10.766;2023-06-04T06:06:41;14.90;1.00
3701;DHT22;1866;48.374;10.766;2023-06-04T06:09:09;14.50;99.90
3701;DHT22;1866;48.374;10.766;2023-06-04T06:11:36;14.90;1.00
3701;DHT22;1866;48.374;10.766;2023-06-04T06:14:02;15.30;1.00
3701;DHT22;1866;48.374;10.766;2023-06-04T06:16:30;15.40;1.00
3701;DHT22;1866;48.374;10.766;2023-06-04T06:18:57;15.20;99.90
3701;DHT22;1866;48.374;10.766;2023-06-04T06:21:24;15.20;99.90
3701;DHT22;1866;48.374;10.766;2023-06-04T06:23:51;15.20;1.00
3701;DHT22;1866;48.374;10.766;2023-06-04T06:26:18;15.70;1.00
3701;DHT22;1866;48.374;10.766;2023-06-04T06:28:44;15.90;1.00
3701;DHT22;1866;48.374;10.766;2023-06-04T06:31:11;15.40;1.00
3701;DHT22;1866;48.374;10.766;2023-06-04T06:33:39;15.50;1.00
3701;DHT22;1866;48.374;10.766;2023-06-04T06:36:06;15.70;1.00
3701;DHT22;1866;48.374;10.766;2023-06-04T06:38:33;15.80;1.00
3701;DHT22;1866;48.374;10.766;2023-06-04T06:41:00;16.20;1.00
3701;DHT22;1866;48.374;10.766;2023-06-04T06:43:26;16.60;1.00
3701;DHT22;1866;48.374;10.766;2023-06-04T06:45:53;16.40;1.00
3701;DHT22;1866;48.374;10.766;2023-06-04T06:48:20;16.40;1.00
3701;DHT22;1866;48.374;10.766;2023-06-04T06:50:48;16.30;1.00
3701;DHT22;1866;48.374;10.766;2023-06-04T06:53:15;15.90;1.00
3701;DHT22;1866;48.374;10.766;2023-06-04T06:55:42;16.60;1.00
3701;DHT22;1866;48.374;10.766;2023-06-04T06:58:09;16.60;1.00
3701;DHT22;1866;48.374;10.766;2023-06-04T07:00:36;16.40;1.00
3701;DHT22;1866;48.374;10.766;2023-06-04T07:03:03;16.10;99.90
3701;DHT22;1866;48.374;10.766;2023-06-04T07:05:30;16.00;99.90
3701;DHT22;1866;48.374;10.766;2023-06-04T07:07:59;16.90;1.00
3701;DHT22;1866;48.374;10.766;2023-06-04T07:10:26;16.80;1.00
3701;DHT22;1866;48.374;10.766;2023-06-04T07:12:53;17.00;1.00
3701;DHT22;1866;48.374;10.766;2023-06-04T07:15:20;17.20;1.00
3701;DHT22;1866;48.374;10.766;2023-06-04T07:17:47;17.10;1.00
3701;DHT22;1866;48.374;10.766;2023-06-04T07:20:14;17.20;1.00
3701;DHT22;1866;48.374;10.766;2023-06-04T07:22:41;17.40;1.00
3701;DHT22;1866;48.374;10.766;2023-06-04T07:25:09;17.60;1.00
3701;DHT22;1866;48.374;10.766;2023-06-04T07:27:36;17.20;1.00
3701;DHT22;1866;48.374;10.766;2023-06-04T07:30:05;17.30;1.00
3701;DHT22;1866;48.374;10.766;2023-06-04T07:32:32;17.30;1.00
3701;DHT22;1866;48.374;10.766;2023-06-04T07:34:59;17.20;1.00
3701;DHT22;1866;48.374;10.766;2023-06-04T07:37:26;17.30;1.00
3701;DHT22;1866;48.374;10.766;2023-06-04T07:39:52;17.40;1.00
3701;DHT22;1866;48.374;10.766;2023-06-04T07:42:20;17.30;1.00
3701;DHT22;1866;48.374;10.766;2023-06-04T07:44:47;18.00;1.00
3701;DHT22;1866;48.374;10.766;2023-06-04T07:47:14;17.60;1.00
3701;DHT22;1866;48.374;10.766;2023-06-04T07:49:41;17.60;1.00
3701;DHT22;1866;48.374;10.766;2023-06-04T07:52:07;17.80;1.00
3701;DHT22;1866;48.374;10.766;2023-06-04T07:54:34;17.60;1.00
3701;DHT22;1866;48.374;10.766;2023-06-04T07:57:00;17.80;1.00
3701;DHT22;1866;48.374;10.766;2023-06-04T07:59:28;17.90;1.00
3701;DHT22;1866;48.374;10.766;2023-06-04T08:01:56;17.50;1.00
3701;DHT22;1866;48.374;10.766;2023-06-04T08:04:22;17.40;1.00
3701;DHT22;1866;48.374;10.766;2023-06-04T08:06:49;17.90;1.00
3701;DHT22;1866;48.374;10.766;2023-06-04T08:09:16;18.00;1.00
3701;DHT22;1866;48.374;10.766;2023-06-04T08:11:44;17.90;1.00
3701;DHT22;1866;48.374;10.766;2023-06-04T08:14:11;18.30;1.00
3701;DHT22;1866;48.374;10.766;2023-06-04T08:16:39;18.50;1.00
3701;DHT22;1866;48.374;10.766;2023-06-04T08:19:06;18.60;1.00
3701;DHT22;1866;48.374;10.766;2023-06-04T08:21:33;18.00;1.00
3701;DHT22;1866;48.374;10.766;2023-06-04T08:24:00;18.40;1.00
3701;DHT22;1866;48.374;10.766;2023-06-04T08:26:27;18.30;1.00
3701;DHT22;1866;48.374;10.766;2023-06-04T08:28:54;18.40;1.00
3701;DHT22;1866;48.374;10.766;2023-06-04T08:31:22;18.50;1.00
3701;DHT22;1866;48.374;10.766;2023-06-04T08:33:50;18.30;1.00
3701;DHT22;1866;48.374;10.766;2023-06-04T08:36:17;18.50;1.00
3701;DHT22;1866;48.374;10.766;2023-06-04T08:38:43;18.80;1.00
3701;DHT22;1866;48.374;10.766;2023-06-04T08:41:12;19.10;1.00
3701;DHT22;1866;48.374;10.766;2023-06-04T08:43:39;19.40;1.00
3701;DHT22;1866;48.374;10.766;2023-06-04T08:46:08;18.90;1.00
3701;DHT22;1866;48.374;10.766;2023-06-04T08:48:35;18.80;1.00
3701;DHT22;1866;48.374;10.766;2023-06-04T08:51:06;19.20;1.00
3701;DHT22;1866;48.374;10.766;2023-06-04T08:53:34;19.10;1.00
3701;DHT22;1866;48.374;10.766;2023-06-04T08:56:00;19.20;1.00
3701;DHT22;1866;48.374;10.766;2023-06-04T08:58:28;19.00;1.00
3701;DHT22;1866;48.374;10.766;2023-06-04T09:00:56;19.20;1.00
3701;DHT22;1866;48.374;10.766;2023-06-04T09:03:23;18.80;1.00
3701;DHT22;1866;48.374;10.766;2023-06-04T09:05:51;19.30;1.00
3701;DHT22;1866;48.374;10.766;2023-06-04T09:08:21;19.20;1.00
3701;DHT22;1866;48.374;10.766;2023-06-04T09:10:49;19.00;1.00
3701;DHT22;1866;48.374;10.766;2023-06-04T09:13:18;19.10;1.00
3701;DHT22;1866;48.374;10.766;2023-06-04T09:15:57;19.40;1.00
3701;DHT22;1866;48.374;10.766;2023-06-04T09:18:24;19.10;1.00
3701;DHT22;1866;48.374;10.766;2023-06-04T09:20:59;19.40;1.00
3701;DHT22;1866;48.374;10.766;2023-06-04T09:23:28;19.90;1.00
3701;DHT22;1866;48.374;10.766;2023-06-04T09:25:55;20.00;1.00
3701;DHT22;1866;48.374;10.766;2023-06-04T09:28:22;19.80;1.00
3701;DHT22;1866;48.374;10.766;2023-06-04T09:30:51;20.20;1.00
3701;DHT22;1866;48.374;10.766;2023-06-04T09:33:18;20.00;1.00
3701;DHT22;1866;48.374;10.766;2023-06-04T09:35:53;20.30;1.00
3701;DHT22;1866;48.374;10.766;2023-06-04T09:38:21;20.20;1.00
3701;DHT22;1866;48.374;10.766;2023-06-04T09:40:49;20.20;1.00
3701;DHT22;1866;48.374;10.766;2023-06-04T09:43:21;20.10;1.00
3701;DHT22;1866;48.374;10.766;2023-06-04T09:45:49;19.90;1.00
3701;DHT22;1866;48.374;10.766;2023-06-04T09:48:20;20.10;1.00
3701;DHT22;1866;48.374;10.766;2023-06-04T09:50:47;20.30;1.00
3701;DHT22;1866;48.374;10.766;2023-06-04T09:53:14;20.20;1.00
3701;DHT22;1866;48.374;10.766;2023-06-04T09:55:42;20.60;1.00
3701;DHT22;1866;48.374;10.766;2023-06-04T09:58:10;20.10;1.00
3701;DHT22;1866;48.374;10.766;2023-06-04T10:00:38;20.00;1.00
3701;DHT22;1866;48.374;10.766;2023-06-04T10:03:05;20.50;1.00
3701;DHT22;1866;48.374;10.766;2023-06-04T10:05:33;20.90;1.00
3701;DHT22;1866;48.374;10.766;2023-06-04T10:08:03;20.40;1.00
3701;DHT22;1866;48.374;10.766;2023-06-04T10:10:34;20.30;1.00
3701;DHT22;1866;48.374;10.766;2023-06-04T10:13:05;20.40;1.00
3701;DHT22;1866;48.374;10.766;2023-06-04T10:15:35;20.70;1.00
3701;DHT22;1866;48.374;10.766;2023-06-04T10:18:02;20.60;1.00
3701;DHT22;1866;48.374;10.766;2023-06-04T10:20:30;20.50;1.00
3701;DHT22;1866;48.374;10.766;2023-06-04T10:22:57;20.20;1.00
3701;DHT22;1866;48.374;10.766;2023-06-04T10:25:26;20.40;1.00
3701;DHT22;1866;48.374;10.766;2023-06-04T10:27:53;20.40;1.00
3701;DHT22;1866;48.374;10.766;2023-06-04T10:30:20;20.80;1.00
3701;DHT22;1866;48.374;10.766;2023-06-04T10:32:48;21.00;1.00
3701;DHT22;1866;48.374;10.766;2023-06-04T10:35:15;20.90;1.00
3701;DHT22;1866;48.374;10.766;2023-06-04T10:37:42;21.30;1.00
3701;DHT22;1866;48.374;10.766;2023-06-04T10:40:10;21.20;1.00
3701;DHT22;1866;48.374;10.766;2023-06-04T10:42:38;21.10;1.00
3701;DHT22;1866;48.374;10.766;2023-06-04T10:45:05;21.30;1.00
3701;DHT22;1866;48.374;10.766;2023-06-04T10:47:33;21.40;1.00
3701;DHT22;1866;48.374;10.766;2023-06-04T10:50:10;21.50;1.00
3701;DHT22;1866;48.374;10.766;2023-06-04T10:52:37;21.70;1.00
3701;DHT22;1866;48.374;10.766;2023-06-04T10:55:05;22.10;1.00
3701;DHT22;1866;48.374;10.766;2023-06-04T10:57:33;22.00;1.00
3701;DHT22;1866;48.374;10.766;2023-06-04T11:00:00;21.60;1.00
3701;DHT22;1866;48.374;10.766;2023-06-04T11:02:31;21.90;1.00
3701;DHT22;1866;48.374;10.766;2023-06-04T11:04:58;21.30;1.00
3701;DHT22;1866;48.374;10.766;2023-06-04T11:07:28;21.60;1.00
3701;DHT22;1866;48.374;10.766;2023-06-04T11:09:55;21.60;1.00
3701;DHT22;1866;48.374;10.766;2023-06-04T11:12:21;21.50;1.00
3701;DHT22;1866;48.374;10.766;2023-06-04T11:14:54;21.20;1.00
3701;DHT22;1866;48.374;10.766;2023-06-04T11:17:21;21.60;1.00
3701;DHT22;1866;48.374;10.766;2023-06-04T11:19:48;22.20;1.00
3701;DHT22;1866;48.374;10.766;2023-06-04T11:22:15;22.10;1.00
3701;DHT22;1866;48.374;10.766;2023-06-04T11:24:43;21.90;1.00
3701;DHT22;1866;48.374;10.766;2023-06-04T11:27:10;21.60;1.00
3701;DHT22;1866;48.374;10.766;2023-06-04T11:29:37;21.80;1.00
3701;DHT22;1866;48.374;10.766;2023-06-04T11:32:04;21.70;1.00
3701;DHT22;1866;48.374;10.766;2023-06-04T11:34:31;21.70;1.00
3701;DHT22;1866;48.374;10.766;2023-06-04T11:37:07;21.80;1.00
3701;DHT22;1866;48.374;10.766;2023-06-04T11:39:34;22.10;1.00
3701;DHT22;1866;48.374;10.766;2023-06-04T11:42:05;21.80;1.00
3701;DHT22;1866;48.374;10.766;2023-06-04T11:44:33;21.60;1.00
3701;DHT22;1866;48.374;10.766;2023-06-04T11:47:00;21.80;1.00
3701;DHT22;1866;48.374;10.766;2023-06-04T11:49:27;21.90;1.00
3701;DHT22;1866;48.374;10.766;2023-06-04T11:51:53;21.90;1.00
3701;DHT22;1866;48.374;10.766;2023-06-04T11:54:21;22.10;1.00
3701;DHT22;1866;48.374;10.766;2023-06-04T11:56:48;21.90;1.00
3701;DHT22;1866;48.374;10.766;2023-06-04T11:59:17;21.60;1.00
3701;DHT22;1866;48.374;10.766;2023-06-04T12:01:44;21.40;1.00
3701;DHT22;1866;48.374;10.766;2023-06-04T12:04:11;21.50;1.00
3701;DHT22;1866;48.374;10.766;2023-06-04T12:06:38;22.10;1.00
3701;DHT22;1866;48.374;10.766;2023-06-04T12:09:05;22.40;1.00
3701;DHT22;1866;48.374;10.766;2023-06-04T12:11:32;22.40;1.00
3701;DHT22;1866;48.374;10.766;2023-06-04T12:14:00;22.10;1.00
3701;DHT22;1866;48.374;10.766;2023-06-04T12:16:28;22.40;1.00
3701;DHT22;1866;48.374;10.766;2023-06-04T12:19:07;22.80;1.00
3701;DHT22;1866;48.374;10.766;2023-06-04T12:21:34;22.30;1.00
3701;DHT22;1866;48.374;10.766;2023-06-04T12:24:07;22.70;1.00
3701;DHT22;1866;48.374;10.766;2023-06-04T12:26:34;22.40;1.00
3701;DHT22;1866;48.374;10.766;2023-06-04T12:29:07;22.50;1.00
3701;DHT22;1866;48.374;10.766;2023-06-04T12:31:36;22.00;1.00
3701;DHT22;1866;48.374;10.766;2023-06-04T12:34:03;22.10;1.00
3701;DHT22;1866;48.374;10.766;2023-06-04T12:36:30;22.30;1.00
3701;DHT22;1866;48.374;10.766;2023-06-04T12:38:59;22.80;1.00
3701;DHT22;1866;48.374;10.766;2023-06-04T12:41:26;22.50;1.00
3701;DHT22;1866;48.374;10.766;2023-06-04T12:43:53;22.40;1.00
3701;DHT22;1866;48.374;10.766;2023-06-04T12:46:20;22.30;1.00
3701;DHT22;1866;48.374;10.766;2023-06-04T12:48:49;22.20;1.00
3701;DHT22;1866;48.374;10.766;2023-06-04T12:51:15;22.30;1.00
3701;DHT22;1866;48.374;10.766;2023-06-04T12:53:42;22.10;1.00
3701;DHT22;1866;48.374;10.766;2023-06-04T12:56:09;22.30;1.00
3701;DHT22;1866;48.374;10.766;2023-06-04T12:58:36;22.50;1.00
3701;DHT22;1866;48.374;10.766;2023-06-04T13:01:03;22.30;1.00
3701;DHT22;1866;48.374;10.766;2023-06-04T13:03:30;22.40;1.00
3701;DHT22;1866;48.374;10.766;2023-06-04T13:05:58;22.30;1.00
3701;DHT22;1866;48.374;10.766;2023-06-04T13:08:25;22.30;1.00
3701;DHT22;1866;48.374;10.766;2023-06-04T13:10:52;22.20;1.00
3701;DHT22;1866;48.374;10.766;2023-06-04T13:13:19;22.10;1.00
3701;DHT22;1866;48.374;10.766;2023-06-04T13:15:46;22.40;1.00
3701;DHT22;1866;48.374;10.766;2023-06-04T13:18:13;22.20;1.00
3701;DHT22;1866;48.374;10.766;2023-06-04T13:20:39;22.30;1.00
3701;DHT22;1866;48.374;10.766;2023-06-04T13:23:08;22.60;1.00
3701;DHT22;1866;48.374;10.766;2023-06-04T13:25:35;22.80;1.00
3701;DHT22;1866;48.374;10.766;2023-06-04T13:28:02;22.50;1.00
3701;DHT22;1866;48.374;10.766;2023-06-04T13:30:29;22.30;1.00
3701;DHT22;1866;48.374;10.766;2023-06-04T13:32:55;22.70;1.00
3701;DHT22;1866;48.374;10.766;2023-06-04T13:35:23;22.80;1.00
3701;DHT22;1866;48.374;10.766;2023-06-04T13:37:50;22.70;1.00
3701;DHT22;1866;48.374;10.766;2023-06-04T13:40:18;22.30;1.00
3701;DHT22;1866;48.374;10.766;2023-06-04T13:42:45;22.20;1.00
3701;DHT22;1866;48.374;10.766;2023-06-04T13:45:12;22.30;1.00
3701;DHT22;1866;48.374;10.766;2023-06-04T13:47:38;22.10;1.00
3701;DHT22;1866;48.374;10.766;2023-06-04T13:50:05;22.40;1.00
3701;DHT22;1866;48.374;10.766;2023-06-04T13:52:32;22.20;1.00
3701;DHT22;1866;48.374;10.766;2023-06-04T13:54:59;22.60;1.00
3701;DHT22;1866;48.374;10.766;2023-06-04T13:57:27;22.60;1.00
3701;DHT22;1866;48.374;10.766;2023-06-04T13:59:54;22.50;1.00
3701;DHT22;1866;48.374;10.766;2023-06-04T14:02:20;22.50;1.00
3701;DHT22;1866;48.374;10.766;2023-06-04T14:04:49;22.90;1.00
3701;DHT22;1866;48.374;10.766;2023-06-04T14:07:16;23.10;1.00
3701;DHT22;1866;48.374;10.766;2023-06-04T14:09:43;22.80;1.00
3701;DHT22;1866;48.374;10.766;2023-06-04T14:12:09;22.70;1.00
3701;DHT22;1866;48.374;10.766;2023-06-04T14:14:37;22.70;1.00
3701;DHT22;1866;48.374;10.766;2023-06-04T14:17:04;23.00;1.00
3701;DHT22;1866;48.374;10.766;2023-06-04T14:19:32;23.10;1.00
3701;DHT22;1866;48.374;10.766;2023-06-04T14:22:00;22.60;1.00
3701;DHT22;1866;48.374;10.766;2023-06-04T14:24:26;22.70;1.00
3701;DHT22;1866;48.374;10.766;2023-06-04T14:26:53;22.50;1.00
3701;DHT22;1866;48.374;10.766;2023-06-04T14:29:20;22.60;1.00
3701;DHT22;1866;48.374;10.766;2023-06-04T14:31:47;22.60;1.00
3701;DHT22;1866;48.374;10.766;2023-06-04T14:34:14;22.50;1.00
3701;DHT22;1866;48.374;10.766;2023-06-04T14:36:41;22.70;1.00
3701;DHT22;1866;48.374;10.766;2023-06-04T14:39:07;22.70;1.00
3701;DHT22;1866;48.374;10.766;2023-06-04T14:41:34;22.60;1.00
3701;DHT22;1866;48.374;10.766;2023-06-04T14:44:01;22.90;1.00
3701;DHT22;1866;48.374;10.766;2023-06-04T14:46:27;22.50;1.00
3701;DHT22;1866;48.374;10.766;2023-06-04T14:48:55;22.70;1.00
3701;DHT22;1866;48.374;10.766;2023-06-04T14:51:22;22.80;1.00
3701;DHT22;1866;48.374;10.766;2023-06-04T14:53:48;22.60;1.00
3701;DHT22;1866;48.374;10.766;2023-06-04T14:56:16;22.50;1.00
3701;DHT22;1866;48.374;10.766;2023-06-04T14:58:43;22.50;1.00
3701;DHT22;1866;48.374;10.766;2023-06-04T15:01:10;22.40;1.00
3701;DHT22;1866;48.374;10.766;2023-06-04T15:03:37;22.60;1.00
3701;DHT22;1866;48.374;10.766;2023-06-04T15:06:05;22.50;1.00
3701;DHT22;1866;48.374;10.766;2023-06-04T15:08:32;22.50;1.00
3701;DHT22;1866;48.374;10.766;2023-06-04T15:10:59;22.60;1.00
3701;DHT22;1866;48.374;10.766;2023-06-04T15:13:26;22.40;1.00
3701;DHT22;1866;48.374;10.766;2023-06-04T15:15:52;22.50;1.00
3701;DHT22;1866;48.374;10.766;2023-06-04T15:18:19;22.40;1.00
3701;DHT22;1866;48.374;10.766;2023-06-04T15:20:46;22.50;1.00
3701;DHT22;1866;48.374;10.766;2023-06-04T15:23:14;22.50;1.00
3701;DHT22;1866;48.374;10.766;2023-06-04T15:25:41;22.20;1.00
3701;DHT22;1866;48.374;10.766;2023-06-04T15:28:08;22.10;99.90
3701;DHT22;1866;48.374;10.766;2023-06-04T15:30:35;22.10;1.00
3701;DHT22;1866;48.374;10.766;2023-06-04T15:33:01;22.40;1.00
3701;DHT22;1866;48.374;10.766;2023-06-04T15:35:28;22.30;1.00
3701;DHT22;1866;48.374;10.766;2023-06-04T15:37:54;22.40;1.00
3701;DHT22;1866;48.374;10.766;2023-06-04T15:40:22;22.60;1.00
3701;DHT22;1866;48.374;10.766;2023-06-04T15:42:49;22.60;1.00
3701;DHT22;1866;48.374;10.766;2023-06-04T15:45:16;22.80;1.00
3701;DHT22;1866;48.374;10.766;2023-06-04T15:47:45;22.50;1.00
3701;DHT22;1866;48.374;10.766;2023-06-04T15:50:11;22.90;1.00
3701;DHT22;1866;48.374;10.766;2023-06-04T15:52:38;23.20;1.00
3701;DHT22;1866;48.374;10.766;2023-06-04T15:55:05;22.80;1.00
3701;DHT22;1866;48.374;10.766;2023-06-04T15:57:33;23.10;1.00
3701;DHT22;1866;48.374;10.766;2023-06-04T15:59:59;23.10;1.00
3701;DHT22;1866;48.374;10.766;2023-06-04T16:02:26;22.60;1.00